Data at: 0029 UTC 24 Oct 2017

METAR for:KAFF (Air Force Academy Ai, CO, US)
Text:KAFF 232358Z AUTO 01008KT 10SM CLR 07/M03 A3046 RMK AO2 SLP292 T00681029 10105 20066 53008
Temperature: 6.8°C ( 44°F)
Dewpoint: -2.9°C ( 27°F) [RH = 50%]
Pressure (altimeter):30.46 inches Hg (1031.6 mb) [Sea level pressure: 1029.2 mb]
Winds:from the N (10 degrees) at 9 MPH (8 knots; 4.1 m/s)
Visibility:10 or more sm (16+ km)
Ceiling:at least 12,000 feet AGL
Clouds:sky clear below 12,000 feet AGL
QC Flag:automated observation with no human augmentation
Text:KAFF 232313Z AUTO 05007KT 10SM SCT040 09/M03 A3044 RMK AO2 SLP278
Temperature: 9.0°C ( 48°F)
Dewpoint: -3.0°C ( 27°F) [RH = 43%]
Pressure (altimeter):30.44 inches Hg (1030.9 mb) [Sea level pressure: 1027.8 mb]
Winds:from the NE (50 degrees) at 8 MPH (7 knots; 3.6 m/s)
Visibility:10 or more sm (16+ km)
Ceiling:at least 12,000 feet AGL
Clouds: scattered clouds at 4000 feet AGL
QC Flag:automated observation with no human augmentation
Text:KAFF 232258Z AUTO 05008KT 10SM BKN040 10/M02 A3044 RMK AO2 SLP272 T00971020
Temperature: 9.7°C ( 49°F)
Dewpoint: -2.0°C ( 28°F) [RH = 44%]
Pressure (altimeter):30.44 inches Hg (1030.9 mb) [Sea level pressure: 1027.2 mb]
Winds:from the NE (50 degrees) at 9 MPH (8 knots; 4.1 m/s)
Visibility:10 or more sm (16+ km)
Ceiling:4000 feet AGL
Clouds: broken clouds at 4000 feet AGL
QC Flag:automated observation with no human augmentation
Text:KAFF 232243Z AUTO 00000KT 10SM BKN040 10/M01 A3044 RMK AO2 SLP272
Temperature: 10.0°C ( 50°F)
Dewpoint: -1.0°C ( 30°F) [RH = 46%]
Pressure (altimeter):30.44 inches Hg (1030.9 mb) [Sea level pressure: 1027.2 mb]
Winds:calm
Visibility:10 or more sm (16+ km)
Ceiling:4000 feet AGL
Clouds: broken clouds at 4000 feet AGL
QC Flag:automated observation with no human augmentation
Text:KAFF 232158Z AUTO 30003KT 10SM FEW037 10/M01 A3043 RMK AO2 SLP258 T01021006
Temperature: 10.2°C ( 50°F)
Dewpoint: -0.6°C ( 31°F) [RH = 47%]
Pressure (altimeter):30.43 inches Hg (1030.6 mb) [Sea level pressure: 1025.8 mb]
Winds:from the WNW (300 degrees) at 3 MPH (3 knots; 1.5 m/s)
Visibility:10 or more sm (16+ km)
Ceiling:at least 12,000 feet AGL
Clouds: few clouds at 3700 feet AGL
QC Flag:automated observation with no human augmentation
Text:KAFF 232058Z AUTO 09003KT 10SM FEW037 09/M01 A3043 RMK AO2 SLP258 T00941008 53000
Temperature: 9.4°C ( 49°F)
Dewpoint: -0.8°C ( 31°F) [RH = 49%]
Pressure (altimeter):30.43 inches Hg (1030.6 mb) [Sea level pressure: 1025.8 mb]
Winds:from the E (90 degrees) at 3 MPH (3 knots; 1.5 m/s)
Visibility:10 or more sm (16+ km)
Ceiling:at least 12,000 feet AGL
Clouds: few clouds at 3700 feet AGL
QC Flag:automated observation with no human augmentation
Text:KAFF 232028Z AUTO 35004KT 10SM SCT034 09/M01 A3042 RMK AO2 SLP260
Temperature: 9.0°C ( 48°F)
Dewpoint: -1.0°C ( 30°F) [RH = 49%]
Pressure (altimeter):30.42 inches Hg (1030.2 mb) [Sea level pressure: 1026.0 mb]
Winds:from the N (350 degrees) at 5 MPH (4 knots; 2.1 m/s)
Visibility:10 or more sm (16+ km)
Ceiling:at least 12,000 feet AGL
Clouds: scattered clouds at 3400 feet AGL
QC Flag:automated observation with no human augmentation
Text:KAFF 231958Z AUTO 31009KT 10SM OVC033 07/M01 A3042 RMK AO2 SLP260 T00741013
Temperature: 7.4°C ( 45°F)
Dewpoint: -1.3°C ( 30°F) [RH = 54%]
Pressure (altimeter):30.42 inches Hg (1030.2 mb) [Sea level pressure: 1026.0 mb]
Winds:from the NW (310 degrees) at 10 MPH (9 knots; 4.6 m/s)
Visibility:10 or more sm (16+ km)
Ceiling:3300 feet AGL
Clouds: overcast cloud deck at 3300 feet AGL
QC Flag:automated observation with no human augmentation
Text:KAFF 231943Z AUTO 33011KT 10SM OVC031 07/M01 A3043 RMK AO2 SLP263
Temperature: 7.0°C ( 45°F)
Dewpoint: -1.0°C ( 30°F) [RH = 57%]
Pressure (altimeter):30.43 inches Hg (1030.6 mb) [Sea level pressure: 1026.3 mb]
Winds:from the NNW (330 degrees) at 13 MPH (11 knots; 5.7 m/s)
Visibility:10 or more sm (16+ km)
Ceiling:3100 feet AGL
Clouds: overcast cloud deck at 3100 feet AGL
QC Flag:automated observation with no human augmentation
Text:KAFF 231858Z AUTO 35010KT 10SM OVC029 07/M01 A3043 RMK AO2 SLP263 T00721008
Temperature: 7.2°C ( 45°F)
Dewpoint: -0.8°C ( 31°F) [RH = 57%]
Pressure (altimeter):30.43 inches Hg (1030.6 mb) [Sea level pressure: 1026.3 mb]
Winds:from the N (350 degrees) at 12 MPH (10 knots; 5.1 m/s)
Visibility:10 or more sm (16+ km)
Ceiling:2900 feet AGL
Clouds: overcast cloud deck at 2900 feet AGL
QC Flag:automated observation with no human augmentation
Text:KAFF 231843Z AUTO 34010KT 10SM BKN030 07/M01 A3043 RMK AO2 SLP269
Temperature: 7.0°C ( 45°F)
Dewpoint: -1.0°C ( 30°F) [RH = 57%]
Pressure (altimeter):30.43 inches Hg (1030.6 mb) [Sea level pressure: 1026.9 mb]
Winds:from the NNW (340 degrees) at 12 MPH (10 knots; 5.1 m/s)
Visibility:10 or more sm (16+ km)
Ceiling:3000 feet AGL
Clouds: broken clouds at 3000 feet AGL
QC Flag:automated observation with no human augmentation
Text:KAFF 231758Z 01011KT 10SM FEW021 SCT180 07/M01 A3042 RMK AO2A SLP265 T00731007 10091 20046 50005
Temperature: 7.3°C ( 45°F)
Dewpoint: -0.7°C ( 31°F) [RH = 57%]
Pressure (altimeter):30.42 inches Hg (1030.2 mb) [Sea level pressure: 1026.5 mb]
Winds:from the N (10 degrees) at 13 MPH (11 knots; 5.7 m/s)
Visibility:10 or more sm (16+ km)
Ceiling:at least 12,000 feet AGL
Clouds: few clouds at 2100 feet AGL, scattered clouds at 18000 feet AGL
Text:KAFF 231658Z 01016KT 10SM FEW018 SCT180 06/00 A3040 RMK AO2A PK WND 02027/00 SLP258 T00621003
Temperature: 6.2°C ( 43°F)
Dewpoint: -0.3°C ( 31°F) [RH = 63%]
Pressure (altimeter):30.40 inches Hg (1029.5 mb) [Sea level pressure: 1025.8 mb]
Winds:from the N (10 degrees) at 18 MPH (16 knots; 8.2 m/s)
Visibility:10 or more sm (16+ km)
Ceiling:at least 12,000 feet AGL
Clouds: few clouds at 1800 feet AGL, scattered clouds at 18000 feet AGL
Text:KAFF 231558Z 02022G27KT 10SM SCT013 BKN180 05/00 A3043 RMK AO2A PK WND 02028/42 SLP275 T00491005
Temperature: 4.9°C ( 41°F)
Dewpoint: -0.5°C ( 31°F) [RH = 68%]
Pressure (altimeter):30.43 inches Hg (1030.6 mb) [Sea level pressure: 1027.5 mb]
Winds:from the NNE (20 degrees) at 25 MPH (22 knots; 11.3 m/s) gusting to 31 MPH (27 knots; 13.9 m/s)
Visibility:10 or more sm (16+ km)
Ceiling:18000 feet AGL
Clouds: scattered clouds at 1300 feet AGL, broken clouds at 18000 feet AGL
Text:KAFF 231458Z 34014KT 10SM FEW015 SCT150 BKN200 07/M01 A3040 RMK AO2A PRESRR SLP258 T00671012 52037
Temperature: 6.7°C ( 44°F)
Dewpoint: -1.2°C ( 30°F) [RH = 57%]
Pressure (altimeter):30.40 inches Hg (1029.5 mb) [Sea level pressure: 1025.8 mb]
Winds:from the NNW (340 degrees) at 16 MPH (14 knots; 7.2 m/s)
Visibility:10 or more sm (16+ km)
Ceiling:20000 feet AGL
Clouds: few clouds at 1500 feet AGL, scattered clouds at 15000 feet AGL, broken clouds at 20000 feet AGL
Text:KAFF 231439Z AUTO 36012KT 10SM CLR 08/M02 A3038 RMK AO2 WSHFT 32 SLP251
Temperature: 8.0°C ( 46°F)
Dewpoint: -2.0°C ( 28°F) [RH = 49%]
Pressure (altimeter):30.38 inches Hg (1028.9 mb) [Sea level pressure: 1025.1 mb]
Winds:from the N (360 degrees) at 14 MPH (12 knots; 6.2 m/s)
Visibility:10 or more sm (16+ km)
Ceiling:at least 12,000 feet AGL
Clouds:sky clear below 12,000 feet AGL
QC Flag:automated observation with no human augmentation
Text:KAFF 231358Z AUTO 01006KT 10SM CLR 07/M03 A3034 RMK AO2 SLP243 T00721031
Temperature: 7.2°C ( 45°F)
Dewpoint: -3.1°C ( 26°F) [RH = 48%]
Pressure (altimeter):30.34 inches Hg (1027.5 mb) [Sea level pressure: 1024.3 mb]
Winds:from the N (10 degrees) at 7 MPH (6 knots; 3.1 m/s)
Visibility:10 or more sm (16+ km)
Ceiling:at least 12,000 feet AGL
Clouds:sky clear below 12,000 feet AGL
QC Flag:automated observation with no human augmentation
Text:KAFF 231258Z AUTO 04008KT 10SM CLR 07/M03 A3032 RMK AO2 SLP230 T00651032
Temperature: 6.5°C ( 44°F)
Dewpoint: -3.2°C ( 26°F) [RH = 50%]
Pressure (altimeter):30.32 inches Hg (1026.8 mb) [Sea level pressure: 1023.0 mb]
Winds:from the NE (40 degrees) at 9 MPH (8 knots; 4.1 m/s)
Visibility:10 or more sm (16+ km)
Ceiling:at least 12,000 feet AGL
Clouds:sky clear below 12,000 feet AGL
QC Flag:automated observation with no human augmentation
Text:KAFF 231158Z AUTO 35006KT 10SM CLR 09/M04 A3028 RMK AO2 SLP200 T00931036 10155 20081 52015
Temperature: 9.3°C ( 49°F)
Dewpoint: -3.6°C ( 26°F) [RH = 40%]
Pressure (altimeter):30.28 inches Hg (1025.5 mb) [Sea level pressure: 1020.0 mb]
Winds:from the N (350 degrees) at 7 MPH (6 knots; 3.1 m/s)
Visibility:10 or more sm (16+ km)
Ceiling:at least 12,000 feet AGL
Clouds:sky clear below 12,000 feet AGL
QC Flag:automated observation with no human augmentation
Text:KAFF 231058Z AUTO 03010KT 10SM CLR 10/M04 A3027 RMK AO2 SLP191 T00951041
Temperature: 9.5°C ( 49°F)
Dewpoint: -4.1°C ( 25°F) [RH = 38%]
Pressure (altimeter):30.27 inches Hg (1025.1 mb) [Sea level pressure: 1019.1 mb]
Winds:from the NNE (30 degrees) at 12 MPH (10 knots; 5.1 m/s)
Visibility:10 or more sm (16+ km)
Ceiling:at least 12,000 feet AGL
Clouds:sky clear below 12,000 feet AGL
QC Flag:automated observation with no human augmentation
Text:KAFF 230958Z AUTO 36010KT 10SM CLR 13/M05 A3022 RMK AO2 SLP169 T01321049
Temperature: 13.2°C ( 56°F)
Dewpoint: -4.9°C ( 23°F) [RH = 28%]
Pressure (altimeter):30.22 inches Hg (1023.5 mb) [Sea level pressure: 1016.9 mb]
Winds:from the N (360 degrees) at 12 MPH (10 knots; 5.1 m/s)
Visibility:10 or more sm (16+ km)
Ceiling:at least 12,000 feet AGL
Clouds:sky clear below 12,000 feet AGL
QC Flag:automated observation with no human augmentation
Text:KAFF 230859Z AUTO 33014G20KT 10SM CLR 14/M05 A3022 RMK AO2 WSHFT 51 SLP164
Temperature: 14.0°C ( 57°F)
Dewpoint: -5.0°C ( 23°F) [RH = 26%]
Pressure (altimeter):30.22 inches Hg (1023.5 mb) [Sea level pressure: 1016.4 mb]
Winds:from the NNW (330 degrees) at 16 MPH (14 knots; 7.2 m/s) gusting to 23 MPH (20 knots; 10.3 m/s)
Visibility:10 or more sm (16+ km)
Ceiling:at least 12,000 feet AGL
Clouds:sky clear below 12,000 feet AGL
QC Flag:automated observation with no human augmentation
Text:KAFF 230858Z AUTO 33013KT 10SM CLR 14/M05 A3022 RMK AO2 SLP164 T01431050 50002
Temperature: 14.3°C ( 58°F)
Dewpoint: -5.0°C ( 23°F) [RH = 26%]
Pressure (altimeter):30.22 inches Hg (1023.5 mb) [Sea level pressure: 1016.4 mb]
Winds:from the NNW (330 degrees) at 15 MPH (13 knots; 6.7 m/s)
Visibility:10 or more sm (16+ km)
Ceiling:at least 12,000 feet AGL
Clouds:sky clear below 12,000 feet AGL
QC Flag:automated observation with no human augmentation
Text:KAFF 230758Z AUTO 35005G20KT 10SM CLR 16/M05 A3020 RMK AO2 PK WND 27026/24 SLP146 T01551050
Temperature: 15.5°C ( 60°F)
Dewpoint: -5.0°C ( 23°F) [RH = 24%]
Pressure (altimeter):30.20 inches Hg (1022.8 mb) [Sea level pressure: 1014.6 mb]
Winds:from the N (350 degrees) at 6 MPH (5 knots; 2.6 m/s) gusting to 23 MPH (20 knots; 10.3 m/s)
Visibility:10 or more sm (16+ km)
Ceiling:at least 12,000 feet AGL
Clouds:sky clear below 12,000 feet AGL
QC Flag:automated observation with no human augmentation
Text:KAFF 230658Z AUTO 02013G18KT 10SM CLR 14/M05 A3022 RMK AO2 SLP164 T01431050 401981045
Temperature: 14.3°C ( 58°F)
Dewpoint: -5.0°C ( 23°F) [RH = 26%]
Pressure (altimeter):30.22 inches Hg (1023.5 mb) [Sea level pressure: 1016.4 mb]
Winds:from the NNE (20 degrees) at 15 MPH (13 knots; 6.7 m/s) gusting to 21 MPH (18 knots; 9.3 m/s)
Visibility:10 or more sm (16+ km)
Ceiling:at least 12,000 feet AGL
Clouds:sky clear below 12,000 feet AGL
QC Flag:automated observation with no human augmentation
Text:KAFF 230558Z AUTO 01009KT 10SM CLR 14/M05 A3021 RMK AO2 SLP165 T01361051 10160 20105 50003
Temperature: 13.6°C ( 56°F)
Dewpoint: -5.1°C ( 23°F) [RH = 27%]
Pressure (altimeter):30.21 inches Hg (1023.1 mb) [Sea level pressure: 1016.5 mb]
Winds:from the N (10 degrees) at 10 MPH (9 knots; 4.6 m/s)
Visibility:10 or more sm (16+ km)
Ceiling:at least 12,000 feet AGL
Clouds:sky clear below 12,000 feet AGL
QC Flag:automated observation with no human augmentation
Text:KAFF 230458Z AUTO 05007KT 10SM CLR 14/M05 A3020 RMK AO2 SLP172 T01441054
Temperature: 14.4°C ( 58°F)
Dewpoint: -5.4°C ( 22°F) [RH = 25%]
Pressure (altimeter):30.20 inches Hg (1022.8 mb) [Sea level pressure: 1017.2 mb]
Winds:from the NE (50 degrees) at 8 MPH (7 knots; 3.6 m/s)
Visibility:10 or more sm (16+ km)
Ceiling:at least 12,000 feet AGL
Clouds:sky clear below 12,000 feet AGL
QC Flag:automated observation with no human augmentation
Text:KAFF 230358Z AUTO 10004KT 10SM CLR 12/M05 A3021 RMK AO2 SLP197 T01221053
Temperature: 12.2°C ( 54°F)
Dewpoint: -5.3°C ( 22°F) [RH = 29%]
Pressure (altimeter):30.21 inches Hg (1023.1 mb) [Sea level pressure: 1019.7 mb]
Winds:from the E (100 degrees) at 5 MPH (4 knots; 2.1 m/s)
Visibility:10 or more sm (16+ km)
Ceiling:at least 12,000 feet AGL
Clouds:sky clear below 12,000 feet AGL
QC Flag:automated observation with no human augmentation
Text:KAFF 230258Z AUTO 07003KT 10SM CLR 13/M06 A3020 RMK AO2 SLP200 T01281057 50007
Temperature: 12.8°C ( 55°F)
Dewpoint: -5.7°C ( 22°F) [RH = 27%]
Pressure (altimeter):30.20 inches Hg (1022.8 mb) [Sea level pressure: 1020.0 mb]
Winds:from the ENE (70 degrees) at 3 MPH (3 knots; 1.5 m/s)
Visibility:10 or more sm (16+ km)
Ceiling:at least 12,000 feet AGL
Clouds:sky clear below 12,000 feet AGL
QC Flag:automated observation with no human augmentation
Text:KAFF 230158Z AUTO 01005KT 10SM CLR 12/M05 A3021 RMK AO2 SLP222 T01201046
Temperature: 12.0°C ( 54°F)
Dewpoint: -4.6°C ( 24°F) [RH = 31%]
Pressure (altimeter):30.21 inches Hg (1023.1 mb) [Sea level pressure: 1022.2 mb]
Winds:from the N (10 degrees) at 6 MPH (5 knots; 2.6 m/s)
Visibility:10 or more sm (16+ km)
Ceiling:at least 12,000 feet AGL
Clouds:sky clear below 12,000 feet AGL
QC Flag:automated observation with no human augmentation
Text:KAFF 230058Z AUTO 09004KT 10SM FEW220 14/M05 A3018 RMK AO2 SLP211 T01351047
Temperature: 13.5°C ( 56°F)
Dewpoint: -4.7°C ( 24°F) [RH = 28%]
Pressure (altimeter):30.18 inches Hg (1022.1 mb) [Sea level pressure: 1021.1 mb]
Winds:from the E (90 degrees) at 5 MPH (4 knots; 2.1 m/s)
Visibility:10 or more sm (16+ km)
Ceiling:at least 12,000 feet AGL
Clouds: few clouds at 22000 feet AGL
QC Flag:automated observation with no human augmentation
Text:KAFF 222358Z AUTO 18004KT 10SM FEW220 16/M05 A3017 RMK AO2 SLP201 T01601046 10198 20156 50006
Temperature: 16.0°C ( 61°F)
Dewpoint: -4.6°C ( 24°F) [RH = 24%]
Pressure (altimeter):30.17 inches Hg (1021.8 mb) [Sea level pressure: 1020.1 mb]
Winds:from the S (180 degrees) at 5 MPH (4 knots; 2.1 m/s)
Visibility:10 or more sm (16+ km)
Ceiling:at least 12,000 feet AGL
Clouds: few clouds at 22000 feet AGL
QC Flag:automated observation with no human augmentation
Text:KAFF 222258Z AUTO 17005KT 10SM FEW190 FEW220 18/M05 A3017 RMK AO2 SLP189 T01811052
Temperature: 18.1°C ( 65°F)
Dewpoint: -5.2°C ( 23°F) [RH = 20%]
Pressure (altimeter):30.17 inches Hg (1021.8 mb) [Sea level pressure: 1018.9 mb]
Winds:from the S (170 degrees) at 6 MPH (5 knots; 2.6 m/s)
Visibility:10 or more sm (16+ km)
Ceiling:at least 12,000 feet AGL
Clouds: few clouds at 19000 feet AGL, few clouds at 22000 feet AGL
QC Flag:automated observation with no human augmentation
Text:KAFF 222158Z AUTO 18003KT 10SM CLR 18/M06 A3018 RMK AO2 SLP193 T01761056
Temperature: 17.6°C ( 64°F)
Dewpoint: -5.6°C ( 22°F) [RH = 20%]
Pressure (altimeter):30.18 inches Hg (1022.1 mb) [Sea level pressure: 1019.3 mb]
Winds:from the S (180 degrees) at 3 MPH (3 knots; 1.5 m/s)
Visibility:10 or more sm (16+ km)
Ceiling:at least 12,000 feet AGL
Clouds:sky clear below 12,000 feet AGL
QC Flag:automated observation with no human augmentation
Text:KAFF 222058Z AUTO 20006KT 10SM FEW210 18/M05 A3015 RMK AO2 SLP182 T01801053 57016
Temperature: 18.0°C ( 64°F)
Dewpoint: -5.3°C ( 22°F) [RH = 20%]
Pressure (altimeter):30.15 inches Hg (1021.1 mb) [Sea level pressure: 1018.2 mb]
Winds:from the SSW (200 degrees) at 7 MPH (6 knots; 3.1 m/s)
Visibility:10 or more sm (16+ km)
Ceiling:at least 12,000 feet AGL
Clouds: few clouds at 21000 feet AGL
QC Flag:automated observation with no human augmentation
Text:KAFF 221958Z AUTO 00000KT 10SM CLR 19/M06 A3017 RMK AO2 SLP177 T01931064
Temperature: 19.3°C ( 67°F)
Dewpoint: -6.4°C ( 20°F) [RH = 17%]
Pressure (altimeter):30.17 inches Hg (1021.8 mb) [Sea level pressure: 1017.7 mb]
Winds:calm
Visibility:10 or more sm (16+ km)
Ceiling:at least 12,000 feet AGL
Clouds:sky clear below 12,000 feet AGL
QC Flag:automated observation with no human augmentation
Text:KAFF 221858Z AUTO 15007KT 10SM CLR 18/M06 A3018 RMK AO2 SLP180 T01781062
Temperature: 17.8°C ( 64°F)
Dewpoint: -6.2°C ( 21°F) [RH = 19%]
Pressure (altimeter):30.18 inches Hg (1022.1 mb) [Sea level pressure: 1018.0 mb]
Winds:from the SSE (150 degrees) at 8 MPH (7 knots; 3.6 m/s)
Visibility:10 or more sm (16+ km)
Ceiling:at least 12,000 feet AGL
Clouds:sky clear below 12,000 feet AGL
QC Flag:automated observation with no human augmentation
Text:KAFF 221758Z AUTO 17007KT 10SM CLR 16/M07 A3021 RMK AO2 SLP197 T01571072 10161 21045 58011
Temperature: 15.7°C ( 60°F)
Dewpoint: -7.2°C ( 19°F) [RH = 20%]
Pressure (altimeter):30.21 inches Hg (1023.1 mb) [Sea level pressure: 1019.7 mb]
Winds:from the S (170 degrees) at 8 MPH (7 knots; 3.6 m/s)
Visibility:10 or more sm (16+ km)
Ceiling:at least 12,000 feet AGL
Clouds:sky clear below 12,000 feet AGL
QC Flag:automated observation with no human augmentation
Text:KAFF 221658Z AUTO 10003KT 10SM CLR 12/M09 A3023 RMK AO2 SLP210 T01191086
Temperature: 11.9°C ( 53°F)
Dewpoint: -8.6°C ( 17°F) [RH = 23%]
Pressure (altimeter):30.23 inches Hg (1023.8 mb) [Sea level pressure: 1021.0 mb]
Winds:from the E (100 degrees) at 3 MPH (3 knots; 1.5 m/s)
Visibility:10 or more sm (16+ km)
Ceiling:at least 12,000 feet AGL
Clouds:sky clear below 12,000 feet AGL
QC Flag:automated observation with no human augmentation
Text:KAFF 221558Z AUTO 00000KT 10SM FEW200 06/M12 A3024 RMK AO2 SLP239 T00641117
Temperature: 6.4°C ( 44°F)
Dewpoint:-11.7°C ( 11°F) [RH = 26%]
Pressure (altimeter):30.24 inches Hg (1024.1 mb) [Sea level pressure: 1023.9 mb]
Winds:calm
Visibility:10 or more sm (16+ km)
Ceiling:at least 12,000 feet AGL
Clouds: few clouds at 20000 feet AGL
QC Flag:automated observation with no human augmentation
Text:KAFF 221458Z AUTO 00000KT 10SM CLR 03/M13 A3025 RMK AO2 SLP236 T00281127 52009
Temperature: 2.8°C ( 37°F)
Dewpoint:-12.7°C ( 9°F) [RH = 31%]
Pressure (altimeter):30.25 inches Hg (1024.5 mb) [Sea level pressure: 1023.6 mb]
Winds:calm
Visibility:10 or more sm (16+ km)
Ceiling:at least 12,000 feet AGL
Clouds:sky clear below 12,000 feet AGL
QC Flag:automated observation with no human augmentation
Text:KAFF 221358Z AUTO 34005KT 10SM CLR M02/M12 A3024 RMK AO2 SLP257 T10211117
Temperature: -2.1°C ( 28°F)
Dewpoint:-11.7°C ( 11°F) [RH = 48%]
Pressure (altimeter):30.24 inches Hg (1024.1 mb) [Sea level pressure: 1025.7 mb]
Winds:from the NNW (340 degrees) at 6 MPH (5 knots; 2.6 m/s)
Visibility:10 or more sm (16+ km)
Ceiling:at least 12,000 feet AGL
Clouds:sky clear below 12,000 feet AGL
QC Flag:automated observation with no human augmentation
Text:KAFF 221258Z AUTO 00000KT 10SM CLR M04/M12 A3022 RMK AO2 SLP256 T10371117
Temperature: -3.7°C ( 25°F)
Dewpoint:-11.7°C ( 11°F) [RH = 54%]
Pressure (altimeter):30.22 inches Hg (1023.5 mb) [Sea level pressure: 1025.6 mb]
Winds:calm
Visibility:10 or more sm (16+ km)
Ceiling:at least 12,000 feet AGL
Clouds:sky clear below 12,000 feet AGL
QC Flag:automated observation with no human augmentation